Time;durP1;ratioP1;P1;durP2;ratioP2;P2;SDS_P1;SDS_P2;PMS_P1;PMS_P2;Temp;Humidity;BMP_temperature;BMP_pressure;BME280_temperature;BME280_humidity;BME280_pressure;Samples;Min_cycle;Max_cycle;Signal;HPM_P1;HPM_P2
2023/05/31 00:00:26;;;;;;;2.13;1.93;;;15.30;1.00;;;;;;5097810;28;20463;-67
2023/05/31 00:02:54;;;;;;;2.70;1.97;;;15.30;1.00;;;;;;5097080;28;20457;-67
2023/05/31 00:05:21;;;;;;;2.97;2.10;;;15.30;1.00;;;;;;5097728;28;20475;-67
2023/05/31 00:07:47;;;;;;;2.60;2.20;;;15.20;1.00;;;;;;5097362;28;20449;-67
2023/05/31 00:10:14;;;;;;;2.53;1.83;;;15.20;1.00;;;;;;5096858;28;20463;-67
2023/05/31 00:12:41;;;;;;;3.03;2.33;;;15.10;1.00;;;;;;5097109;28;20468;-67
2023/05/31 00:15:09;;;;;;;4.67;1.70;;;15.10;1.00;;;;;;5097239;28;20468;-67
2023/05/31 00:17:36;;;;;;;4.07;1.83;;;15.00;1.00;;;;;;5096185;28;20488;-67
2023/05/31 00:20:05;;;;;;;4.80;2.30;;;15.00;1.00;;;;;;5097120;28;20565;-67
2023/05/31 00:22:32;;;;;;;3.10;1.80;;;14.90;1.00;;;;;;5096739;28;20510;-66
2023/05/31 00:24:58;;;;;;;2.70;2.07;;;14.90;1.00;;;;;;5097124;28;20921;-69
2023/05/31 00:27:25;;;;;;;3.53;1.90;;;14.80;1.00;;;;;;5096742;28;20549;-68
2023/05/31 00:29:52;;;;;;;3.90;2.30;;;14.80;1.00;;;;;;5097338;28;20453;-68
2023/05/31 00:32:19;;;;;;;3.50;2.07;;;14.80;1.00;;;;;;5096689;28;20492;-68
2023/05/31 00:34:46;;;;;;;3.50;2.00;;;14.70;1.00;;;;;;5096888;28;20525;-66
2023/05/31 00:37:14;;;;;;;5.60;2.80;;;14.70;1.00;;;;;;5096218;28;20487;-68
2023/05/31 00:39:41;;;;;;;2.30;1.93;;;14.70;3.70;;;;;;5096726;28;20453;-68
2023/05/31 00:42:09;;;;;;;5.20;2.47;;;14.60;99.90;;;;;;5096653;28;20453;-68
2023/05/31 00:44:36;;;;;;;3.97;1.77;;;14.60;1.00;;;;;;5096577;28;20476;-68
2023/05/31 00:47:03;;;;;;;6.27;1.60;;;14.60;99.90;;;;;;5096460;28;20459;-68
2023/05/31 00:49:30;;;;;;;5.33;2.50;;;14.50;1.00;;;;;;5096498;28;20644;-68
2023/05/31 00:51:58;;;;;;;4.13;1.80;;;14.50;99.90;;;;;;5096654;28;20822;-68
2023/05/31 00:54:26;;;;;;;2.83;1.80;;;14.50;99.90;;;;;;5096568;28;20465;-68
2023/05/31 00:56:54;;;;;;;4.67;2.83;;;14.50;99.90;;;;;;5096408;28;20457;-68
2023/05/31 00:59:21;;;;;;;6.83;2.23;;;14.50;99.90;;;;;;5096243;28;20457;-68
2023/05/31 01:01:48;;;;;;;3.00;1.70;;;14.50;99.90;;;;;;5096552;28;20789;-68
2023/05/31 01:04:16;;;;;;;2.70;2.03;;;14.40;99.90;;;;;;5096022;28;20796;-68
2023/05/31 01:06:43;;;;;;;9.53;2.20;;;14.40;99.90;;;;;;5095588;28;20492;-68
2023/05/31 01:09:10;;;;;;;4.30;2.40;;;14.40;99.90;;;;;;5095901;28;20445;-68
2023/05/31 01:11:56;;;;;;;5.10;2.00;;;14.30;99.90;;;;;;5095709;28;20901;-68
2023/05/31 01:14:30;;;;;;;3.40;2.00;;;14.30;99.90;;;;;;5096052;28;20525;-68
2023/05/31 01:17:06;;;;;;;3.30;1.87;;;14.20;99.90;;;;;;5095815;28;20725;-68
2023/05/31 01:19:47;;;;;;;5.30;2.23;;;14.20;99.90;;;;;;5095787;28;20442;-68
2023/05/31 01:22:23;;;;;;;5.47;2.00;;;14.10;99.90;;;;;;5095697;28;20448;-68
2023/05/31 01:25:04;;;;;;;3.67;1.80;;;14.10;99.90;;;;;;5095694;28;20437;-68
2023/05/31 01:27:33;;;;;;;3.97;2.07;;;14.00;99.90;;;;;;5095827;28;20437;-68
2023/05/31 01:30:02;;;;;;;2.27;1.70;;;14.00;99.90;;;;;;5094761;28;20453;-68
2023/05/31 01:32:30;;;;;;;2.60;2.10;;;14.00;99.90;;;;;;5095404;28;20464;-68
2023/05/31 01:34:56;;;;;;;3.90;2.00;;;13.90;99.90;;;;;;5095270;28;20929;-68
2023/05/31 01:37:23;;;;;;;4.30;1.93;;;13.90;99.90;;;;;;5095261;28;20588;-68
2023/05/31 01:39:51;;;;;;;3.97;2.10;;;13.90;99.90;;;;;;5095492;28;20795;-68
2023/05/31 01:42:20;;;;;;;3.93;2.13;;;13.90;99.90;;;;;;5095486;28;20517;-68
2023/05/31 01:44:50;;;;;;;3.97;2.23;;;13.80;99.90;;;;;;5095374;28;20464;-68
2023/05/31 01:47:18;;;;;;;3.50;2.20;;;13.80;99.90;;;;;;5094923;28;20453;-68
2023/05/31 01:49:46;;;;;;;4.70;2.47;;;13.70;99.90;;;;;;5095131;28;20563;-68
2023/05/31 01:52:16;;;;;;;4.23;2.20;;;13.70;99.90;;;;;;5094968;28;20467;-68
2023/05/31 01:54:43;;;;;;;2.93;2.50;;;13.60;99.90;;;;;;5095081;28;20448;-68
2023/05/31 01:57:10;;;;;;;3.57;1.90;;;13.60;99.90;;;;;;5094893;28;20453;-68
2023/05/31 01:59:39;;;;;;;3.40;2.20;;;13.60;99.90;;;;;;5094883;28;20467;-68
2023/05/31 02:02:08;;;;;;;3.47;2.37;;;13.50;99.90;;;;;;5094870;28;20766;-68
2023/05/31 02:04:34;;;;;;;2.27;2.00;;;13.50;99.90;;;;;;5094930;28;20457;-68
2023/05/31 02:07:02;;;;;;;3.13;2.13;;;13.40;99.90;;;;;;5095035;28;20463;-68
2023/05/31 02:09:29;;;;;;;2.93;2.07;;;13.40;99.90;;;;;;5095171;28;20511;-68
2023/05/31 02:11:56;;;;;;;3.33;2.00;;;13.40;99.90;;;;;;5094814;28;20453;-68
2023/05/31 02:14:23;;;;;;;4.40;2.20;;;13.30;99.90;;;;;;5094689;28;20461;-68
2023/05/31 02:16:49;;;;;;;4.33;2.50;;;13.30;99.90;;;;;;5094903;28;20850;-68
2023/05/31 02:19:19;;;;;;;2.87;1.97;;;13.30;99.90;;;;;;5094779;28;20566;-68
2023/05/31 02:21:46;;;;;;;5.83;2.07;;;13.30;99.90;;;;;;5094827;28;20458;-68
2023/05/31 02:24:12;;;;;;;8.00;6.70;;;13.20;99.90;;;;;;5094563;28;20460;-68
2023/05/31 02:26:39;;;;;;;5.83;2.13;;;13.20;99.90;;;;;;5094888;28;20453;-68
2023/05/31 02:29:06;;;;;;;4.80;2.17;;;13.20;99.90;;;;;;5094073;28;20453;-68
2023/05/31 02:31:33;;;;;;;2.93;1.77;;;13.10;99.90;;;;;;5094621;28;20483;-67
2023/05/31 02:33:59;;;;;;;6.53;2.30;;;13.10;99.90;;;;;;5094315;28;20921;-68
2023/05/31 02:36:28;;;;;;;2.90;1.90;;;13.10;99.90;;;;;;5094145;28;20477;-68
2023/05/31 02:38:55;;;;;;;4.43;2.43;;;13.00;99.90;;;;;;5094218;28;20793;-68
2023/05/31 02:41:22;;;;;;;6.03;2.90;;;13.00;99.90;;;;;;5094305;28;20782;-68
2023/05/31 02:43:49;;;;;;;2.13;1.77;;;12.90;99.90;;;;;;5094610;28;20453;-68
2023/05/31 02:46:16;;;;;;;4.77;2.10;;;12.90;99.90;;;;;;5094542;28;20526;-68
2023/05/31 02:48:42;;;;;;;2.13;1.47;;;12.80;99.90;;;;;;5094327;28;20464;-68
2023/05/31 02:51:09;;;;;;;2.63;2.20;;;12.80;99.90;;;;;;5093850;28;20457;-68
2023/05/31 02:53:37;;;;;;;3.70;2.17;;;12.80;99.90;;;;;;5094174;28;20596;-68
2023/05/31 02:56:04;;;;;;;2.77;2.50;;;12.70;99.90;;;;;;5094455;28;20473;-68
2023/05/31 02:58:31;;;;;;;13.77;2.80;;;12.70;99.90;;;;;;5094601;28;20487;-68
2023/05/31 03:00:58;;;;;;;3.40;2.40;;;12.70;99.90;;;;;;5094287;28;20476;-68
2023/05/31 03:03:25;;;;;;;10.33;2.33;;;12.70;99.90;;;;;;5094051;28;20931;-68
2023/05/31 03:05:52;;;;;;;3.33;2.30;;;12.60;99.90;;;;;;5094189;28;20547;-68
2023/05/31 03:08:19;;;;;;;7.47;2.10;;;12.60;99.90;;;;;;5094022;28;20875;-68
2023/05/31 03:10:47;;;;;;;2.37;1.70;;;12.60;99.90;;;;;;5094067;28;20453;-68
2023/05/31 03:13:14;;;;;;;2.87;2.03;;;12.50;99.90;;;;;;5093755;28;20948;-68
2023/05/31 03:15:41;;;;;;;3.87;1.87;;;12.50;99.90;;;;;;5093734;28;20457;-68
2023/05/31 03:18:08;;;;;;;2.83;2.13;;;12.50;99.90;;;;;;5094265;28;20503;-68
2023/05/31 03:20:35;;;;;;;3.00;1.80;;;12.50;99.90;;;;;;5093776;28;20460;-68
2023/05/31 03:23:02;;;;;;;2.80;2.13;;;12.50;99.90;;;;;;5093932;28;20816;-68
2023/05/31 03:25:29;;;;;;;3.50;2.00;;;12.40;99.90;;;;;;5094141;28;20827;-68
2023/05/31 03:27:58;;;;;;;4.57;2.37;;;12.40;99.90;;;;;;5093678;28;20996;-68
2023/05/31 03:30:25;;;;;;;2.77;2.10;;;12.40;99.90;;;;;;5093998;28;20458;-68
2023/05/31 03:32:51;;;;;;;4.87;2.70;;;12.40;99.90;;;;;;5093696;28;20454;-68
2023/05/31 03:35:18;;;;;;;4.50;2.30;;;12.30;99.90;;;;;;5093919;28;20464;-68
2023/05/31 03:37:45;;;;;;;4.50;2.60;;;12.30;99.90;;;;;;5093189;28;20572;-68
2023/05/31 03:40:12;;;;;;;3.87;2.30;;;12.30;99.90;;;;;;5093655;28;20449;-67
2023/05/31 03:42:39;;;;;;;7.30;2.93;;;12.30;99.90;;;;;;5093205;28;20457;-68
2023/05/31 03:45:08;;;;;;;4.40;2.40;;;12.30;99.90;;;;;;5093449;28;20523;-68
2023/05/31 03:47:35;;;;;;;3.70;2.43;;;12.30;99.90;;;;;;5093699;28;20453;-68
2023/05/31 03:50:03;;;;;;;6.90;2.60;;;12.30;99.90;;;;;;5093820;28;20464;-68
2023/05/31 03:52:29;;;;;;;5.90;2.80;;;12.30;99.90;;;;;;5094497;28;20463;-68
2023/05/31 03:54:56;;;;;;;4.37;3.50;;;12.30;99.90;;;;;;5097475;28;20457;-68
2023/05/31 03:57:23;;;;;;;6.07;3.40;;;12.40;99.90;;;;;;5097703;28;20487;-68
2023/05/31 03:59:50;;;;;;;4.50;2.87;;;12.30;99.90;;;;;;5097018;28;20487;-68
2023/05/31 04:02:18;;;;;;;3.90;2.80;;;12.40;99.90;;;;;;5097313;28;20741;-68
2023/05/31 04:04:45;;;;;;;5.40;2.43;;;12.40;99.90;;;;;;5097244;28;20463;-68
2023/05/31 04:07:12;;;;;;;3.80;2.50;;;12.40;99.90;;;;;;5097206;28;20540;-68
2023/05/31 04:09:39;;;;;;;3.13;2.80;;;12.40;99.90;;;;;;5097042;28;20834;-68
2023/05/31 04:12:06;;;;;;;5.10;2.50;;;12.40;99.90;;;;;;5096643;28;20802;-68
2023/05/31 04:14:33;;;;;;;3.83;2.57;;;12.40;99.90;;;;;;5096759;28;20461;-68
2023/05/31 04:17:00;;;;;;;2.90;2.60;;;12.30;99.90;;;;;;5096991;28;20458;-68
2023/05/31 04:19:28;;;;;;;2.83;2.53;;;12.40;99.90;;;;;;5096559;28;20477;-68
2023/05/31 04:21:55;;;;;;;6.53;2.30;;;12.40;99.90;;;;;;5096330;28;20453;-68
2023/05/31 04:24:22;;;;;;;3.70;2.30;;;12.40;99.90;;;;;;5096941;28;20528;-68
2023/05/31 04:26:49;;;;;;;6.03;3.50;;;12.30;99.90;;;;;;5096779;28;20453;-68
2023/05/31 04:29:17;;;;;;;4.60;2.90;;;12.30;99.90;;;;;;5096692;28;20450;-68
2023/05/31 04:31:44;;;;;;;8.93;3.00;;;12.40;99.90;;;;;;5096718;28;20958;-68
2023/05/31 04:34:17;;;;;;;5.63;3.70;;;12.40;99.90;;;;;;5096697;28;20557;-68
2023/05/31 04:36:48;;;;;;;6.60;2.93;;;12.40;99.90;;;;;;5096343;28;20492;-68
2023/05/31 04:39:15;;;;;;;6.40;2.90;;;12.40;99.90;;;;;;5096219;28;20505;-68
2023/05/31 04:41:42;;;;;;;3.97;2.50;;;12.50;99.90;;;;;;5096424;28;20457;-68
2023/05/31 04:44:09;;;;;;;7.60;3.30;;;12.50;99.90;;;;;;5095908;28;20453;-68
2023/05/31 04:46:36;;;;;;;6.97;2.80;;;12.50;99.90;;;;;;5096062;28;20544;-68
2023/05/31 04:49:04;;;;;;;4.27;2.63;;;12.50;99.90;;;;;;5096499;28;20480;-68
2023/05/31 04:51:32;;;;;;;4.00;2.97;;;12.50;99.90;;;;;;5096117;28;20463;-68
2023/05/31 04:54:00;;;;;;;4.80;2.40;;;12.50;99.90;;;;;;5096294;28;20453;-68
2023/05/31 04:56:27;;;;;;;5.00;2.60;;;12.50;99.90;;;;;;5095863;28;20939;-68
2023/05/31 04:58:55;;;;;;;6.37;2.70;;;12.50;99.90;;;;;;5095796;28;20477;-68
2023/05/31 05:01:22;;;;;;;8.20;3.53;;;12.50;99.90;;;;;;5096329;28;20453;-68
2023/05/31 05:03:51;;;;;;;5.13;2.90;;;12.60;99.90;;;;;;5095848;28;20457;-68
2023/05/31 05:06:18;;;;;;;6.40;2.43;;;12.60;99.90;;;;;;5096029;28;20460;-68
2023/05/31 05:08:45;;;;;;;4.80;2.70;;;12.70;99.90;;;;;;5095646;28;20453;-68
2023/05/31 05:11:14;;;;;;;9.73;3.63;;;12.70;99.90;;;;;;5096046;28;20463;-68
2023/05/31 05:13:42;;;;;;;4.40;2.30;;;12.80;99.90;;;;;;5095696;28;20457;-68
2023/05/31 05:16:08;;;;;;;3.50;2.50;;;12.80;99.90;;;;;;5096367;28;20830;-68
2023/05/31 05:18:35;;;;;;;4.37;2.93;;;12.80;99.90;;;;;;5095652;28;20480;-67
2023/05/31 05:21:03;;;;;;;10.03;2.60;;;12.90;99.90;;;;;;5095882;28;20454;-68
2023/05/31 05:23:31;;;;;;;4.53;2.03;;;12.90;99.90;;;;;;5095459;28;20906;-68
2023/05/31 05:25:58;;;;;;;6.43;2.30;;;12.90;99.90;;;;;;5095844;28;20457;-69
2023/05/31 05:28:26;;;;;;;8.53;2.60;;;13.00;99.90;;;;;;5095317;28;21000;-69
2023/05/31 05:30:53;;;;;;;6.80;3.40;;;13.10;99.90;;;;;;5095588;28;20457;-69
2023/05/31 05:33:20;;;;;;;5.63;2.93;;;13.10;99.90;;;;;;5095665;28;20544;-69
2023/05/31 05:35:47;;;;;;;5.67;2.80;;;13.20;99.90;;;;;;5095819;28;20468;-67
2023/05/31 05:38:14;;;;;;;4.83;2.83;;;13.20;99.90;;;;;;5095319;28;20497;-67
2023/05/31 05:40:40;;;;;;;9.33;3.20;;;13.30;99.90;;;;;;5095397;28;20503;-67
2023/05/31 05:43:08;;;;;;;8.30;3.20;;;13.40;99.90;;;;;;5095033;28;20910;-67
2023/05/31 05:45:36;;;;;;;4.90;2.83;;;13.40;99.90;;;;;;5095272;28;20453;-67
2023/05/31 05:48:03;;;;;;;6.13;3.23;;;13.50;99.90;;;;;;5094828;28;20540;-67
2023/05/31 05:50:30;;;;;;;3.43;2.90;;;13.50;99.90;;;;;;5095172;28;20449;-67
2023/05/31 05:52:57;;;;;;;4.60;2.33;;;13.60;99.90;;;;;;5095199;28;20511;-68
2023/05/31 05:55:24;;;;;;;7.27;3.00;;;13.70;99.90;;;;;;5094722;28;20512;-68
2023/05/31 05:57:51;;;;;;;3.43;2.33;;;13.80;99.90;;;;;;5094614;28;20476;-68
2023/05/31 06:00:18;;;;;;;5.07;2.20;;;13.90;99.90;;;;;;5094472;28;20481;-67
2023/05/31 06:02:47;;;;;;;5.60;3.23;;;14.10;99.90;;;;;;5094674;28;20453;-68
2023/05/31 06:05:14;;;;;;;4.80;2.77;;;14.20;99.90;;;;;;5094891;28;20488;-68
2023/05/31 06:07:40;;;;;;;3.50;2.57;;;14.40;99.90;;;;;;5094509;28;20449;-68
2023/05/31 06:10:09;;;;;;;2.73;2.53;;;14.60;99.90;;;;;;5094350;28;20918;-67
2023/05/31 06:12:36;;;;;;;7.70;2.47;;;14.80;99.90;;;;;;5094616;28;20463;-67
2023/05/31 06:15:02;;;;;;;6.70;2.77;;;14.90;99.90;;;;;;5094290;28;20453;-67
2023/05/31 06:17:29;;;;;;;3.93;2.87;;;15.10;99.90;;;;;;5094494;28;20498;-67
2023/05/31 06:19:57;;;;;;;6.53;3.30;;;15.30;99.90;;;;;;5094434;28;20477;-69
2023/05/31 06:22:24;;;;;;;5.37;2.10;;;15.40;99.90;;;;;;5094708;28;20910;-67
2023/05/31 06:24:51;;;;;;;3.60;2.30;;;15.50;99.90;;;;;;5094674;28;20461;-67
2023/05/31 06:27:18;;;;;;;3.43;2.70;;;15.60;99.90;;;;;;5094635;28;20767;-67
2023/05/31 06:29:45;;;;;;;5.57;2.20;;;15.70;99.90;;;;;;5094524;28;20479;-67
2023/05/31 06:32:12;;;;;;;5.10;2.30;;;15.80;99.90;;;;;;5094595;28;20916;-67
2023/05/31 06:34:38;;;;;;;4.30;3.17;;;15.90;99.90;;;;;;5094497;28;20552;-68
2023/05/31 06:37:08;;;;;;;10.60;4.67;;;16.00;99.90;;;;;;5094395;28;20559;-68
2023/05/31 06:39:35;;;;;;;11.60;8.07;;;16.00;99.90;;;;;;5094508;28;20534;-67
2023/05/31 06:42:02;;;;;;;4.60;2.67;;;16.10;99.90;;;;;;5094501;28;20463;-68
2023/05/31 06:44:29;;;;;;;4.93;2.73;;;16.10;99.90;;;;;;5094139;28;20463;-67
2023/05/31 06:46:55;;;;;;;4.30;2.63;;;16.20;99.90;;;;;;5094655;28;20464;-67
2023/05/31 06:49:22;;;;;;;3.50;1.97;;;16.10;99.90;;;;;;5093835;28;20910;-67
2023/05/31 06:51:49;;;;;;;4.33;2.43;;;16.10;99.90;;;;;;5093889;28;20454;-67
2023/05/31 06:54:18;;;;;;;5.20;2.67;;;16.10;99.90;;;;;;5094155;28;20464;-69
2023/05/31 06:56:44;;;;;;;5.03;3.13;;;16.10;99.90;;;;;;5094123;28;20786;-68
2023/05/31 06:59:11;;;;;;;2.87;2.10;;;16.10;99.90;;;;;;5093622;28;20509;-68
2023/05/31 07:01:38;;;;;;;5.87;2.83;;;16.20;99.90;;;;;;5093667;28;20548;-68
2023/05/31 07:04:05;;;;;;;4.57;2.07;;;16.30;99.90;;;;;;5094027;28;20530;-68
2023/05/31 07:06:32;;;;;;;4.90;2.57;;;16.20;99.90;;;;;;5093592;28;20453;-68
2023/05/31 07:08:59;;;;;;;5.63;2.87;;;16.20;99.90;;;;;;5093779;28;20457;-68
2023/05/31 07:11:27;;;;;;;4.97;3.37;;;16.20;99.90;;;;;;5093774;28;20540;-68
2023/05/31 07:13:59;;;;;;;6.47;2.20;;;16.30;99.90;;;;;;5093505;28;20454;-68
2023/05/31 07:16:26;;;;;;;3.47;2.47;;;16.40;99.90;;;;;;5093733;28;20908;-68
2023/05/31 07:18:53;;;;;;;4.77;2.70;;;16.40;99.90;;;;;;5093768;28;20453;-68
2023/05/31 07:21:19;;;;;;;6.60;2.37;;;16.50;99.90;;;;;;5094132;28;20936;-68
2023/05/31 07:23:46;;;;;;;4.33;2.00;;;16.80;99.90;;;;;;5094121;28;20449;-68
2023/05/31 07:26:15;;;;;;;7.10;2.10;;;17.00;99.90;;;;;;5093657;28;20460;-68
2023/05/31 07:28:44;;;;;;;6.33;2.33;;;17.00;99.90;;;;;;5097041;28;20536;-68
2023/05/31 07:31:11;;;;;;;2.90;2.03;;;17.20;99.90;;;;;;5097800;28;20449;-68
2023/05/31 07:33:38;;;;;;;5.80;2.50;;;17.20;99.90;;;;;;5098031;28;20453;-68
2023/05/31 07:36:06;;;;;;;4.40;2.00;;;17.20;99.90;;;;;;5097224;28;20495;-68
2023/05/31 07:38:33;;;;;;;11.40;2.30;;;17.20;99.90;;;;;;5097853;28;20510;-68
2023/05/31 07:41:00;;;;;;;5.77;2.87;;;17.20;99.90;;;;;;5097198;28;20585;-68
2023/05/31 07:43:29;;;;;;;6.07;5.23;;;17.40;99.90;;;;;;5097669;28;20453;-68
2023/05/31 07:45:57;;;;;;;7.10;2.40;;;17.50;99.90;;;;;;5097614;28;20893;-68
2023/05/31 07:48:25;;;;;;;4.80;2.57;;;17.60;99.90;;;;;;5096954;28;20459;-68
2023/05/31 07:50:52;;;;;;;4.90;2.67;;;17.70;99.90;;;;;;5097295;28;20833;-68
2023/05/31 07:53:19;;;;;;;6.70;2.70;;;17.70;99.90;;;;;;5096942;28;20544;-68
2023/05/31 07:55:46;;;;;;;4.30;2.50;;;17.70;99.90;;;;;;5097382;28;20453;-67
2023/05/31 07:58:12;;;;;;;8.47;2.37;;;17.80;99.90;;;;;;5097282;28;20453;-68
2023/05/31 08:00:39;;;;;;;4.30;2.40;;;17.90;99.90;;;;;;5096869;28;20807;-67
2023/05/31 08:03:08;;;;;;;5.43;2.70;;;18.20;99.90;;;;;;5097472;28;20457;-68
2023/05/31 08:05:35;;;;;;;4.13;2.33;;;18.30;97.20;;;;;;5097099;28;20548;-68
2023/05/31 08:08:02;;;;;;;5.83;1.93;;;18.40;96.10;;;;;;5096747;28;20789;-68
2023/05/31 08:10:30;;;;;;;6.67;2.30;;;18.60;92.10;;;;;;5096993;28;20454;-68
2023/05/31 08:12:57;;;;;;;2.33;1.67;;;18.60;92.00;;;;;;5096824;28;20553;-68
2023/05/31 08:15:23;;;;;;;3.87;2.17;;;18.70;91.90;;;;;;5096327;28;20461;-68
2023/05/31 08:17:50;;;;;;;4.90;2.17;;;18.70;92.40;;;;;;5096529;28;20463;-68
2023/05/31 08:20:19;;;;;;;8.57;2.00;;;18.80;91.30;;;;;;5096436;28;20473;-68
2023/05/31 08:22:46;;;;;;;2.03;1.63;;;18.90;84.00;;;;;;5097175;28;20902;-68
2023/05/31 08:25:16;;;;;;;4.03;2.27;;;19.00;81.60;;;;;;5096721;28;20463;-69
2023/05/31 08:27:43;;;;;;;3.40;1.60;;;19.00;71.60;;;;;;5096797;28;20541;-69
2023/05/31 08:30:11;;;;;;;2.70;1.47;;;19.10;67.90;;;;;;5096796;28;20481;-68
2023/05/31 08:32:40;;;;;;;4.80;1.50;;;19.00;70.50;;;;;;5096394;28;20548;-68
2023/05/31 08:35:08;;;;;;;5.80;1.70;;;19.10;71.30;;;;;;5096601;28;20460;-67
2023/05/31 08:37:37;;;;;;;2.67;1.57;;;19.30;67.40;;;;;;5095751;28;20500;-67
2023/05/31 08:40:05;;;;;;;2.53;1.50;;;19.30;54.90;;;;;;5096299;28;20477;-68
2023/05/31 08:42:39;;;;;;;2.30;1.40;;;19.30;59.50;;;;;;5096114;28;20465;-68
2023/05/31 08:45:07;;;;;;;2.33;1.60;;;19.30;61.40;;;;;;5096424;28;20441;-67
2023/05/31 08:47:39;;;;;;;3.33;1.57;;;19.40;61.30;;;;;;5096522;28;20548;-68
2023/05/31 08:50:07;;;;;;;5.27;1.60;;;19.50;55.00;;;;;;5096327;28;20775;-67
2023/05/31 08:52:36;;;;;;;7.03;1.43;;;19.60;54.00;;;;;;5096568;28;20464;-67
2023/05/31 08:55:04;;;;;;;2.90;1.77;;;19.60;50.50;;;;;;5095946;28;20464;-68
2023/05/31 08:57:33;;;;;;;3.00;1.70;;;19.70;52.30;;;;;;5095885;28;20455;-67
2023/05/31 09:00:08;;;;;;;2.60;1.40;;;19.70;54.60;;;;;;5095786;28;20473;-68
2023/05/31 09:02:35;;;;;;;1.83;1.33;;;19.90;50.30;;;;;;5096242;28;20445;-69
2023/05/31 09:05:03;;;;;;;4.17;1.90;;;19.70;50.10;;;;;;5096281;28;20453;-68
2023/05/31 09:07:31;;;;;;;2.10;1.63;;;19.70;51.00;;;;;;5095783;28;20457;-68
2023/05/31 09:09:59;;;;;;;2.90;1.60;;;19.70;52.30;;;;;;5095833;28;20449;-68
2023/05/31 09:12:26;;;;;;;3.33;1.70;;;19.80;50.90;;;;;;5095762;28;20568;-68
2023/05/31 09:14:53;;;;;;;5.10;1.73;;;19.80;50.80;;;;;;5096242;28;20467;-68
2023/05/31 09:17:21;;;;;;;5.03;1.60;;;19.90;49.60;;;;;;5095833;28;20465;-68
2023/05/31 09:19:52;;;;;;;3.10;1.60;;;20.00;49.70;;;;;;5095785;28;20481;-68
2023/05/31 09:22:19;;;;;;;4.63;2.13;;;20.10;50.80;;;;;;5095784;28;20506;-67
2023/05/31 09:24:57;;;;;;;3.03;1.47;;;20.20;43.80;;;;;;5095600;28;20921;-67
2023/05/31 09:27:26;;;;;;;3.10;1.80;;;20.20;46.30;;;;;;5095811;28;20441;-68
2023/05/31 09:29:53;;;;;;;3.53;1.60;;;20.30;47.60;;;;;;5095166;28;20539;-67
2023/05/31 09:32:20;;;;;;;3.73;1.53;;;20.30;47.20;;;;;;5095433;28;20464;-67
2023/05/31 09:34:47;;;;;;;1.93;1.30;;;20.30;45.40;;;;;;5095476;28;20910;-68
2023/05/31 09:37:24;;;;;;;4.20;1.70;;;20.40;42.90;;;;;;5095192;28;20489;-67
2023/05/31 09:39:55;;;;;;;2.93;1.30;;;20.40;44.10;;;;;;5094965;28;20990;-68
2023/05/31 09:42:22;;;;;;;2.73;1.53;;;20.50;43.60;;;;;;5095046;28;20452;-67
2023/05/31 09:44:51;;;;;;;6.90;1.57;;;20.60;41.40;;;;;;5095266;28;20759;-67
2023/05/31 09:47:23;;;;;;;2.57;1.47;;;20.60;42.30;;;;;;5095462;28;20483;-68
2023/05/31 09:49:53;;;;;;;4.03;1.47;;;20.60;43.30;;;;;;5094157;28;20448;-67
2023/05/31 09:52:26;;;;;;;5.40;1.67;;;20.70;42.90;;;;;;5094903;28;20461;-68
2023/05/31 09:54:53;;;;;;;5.03;1.50;;;20.70;43.20;;;;;;5095047;28;20457;-67
2023/05/31 09:57:33;;;;;;;3.57;1.47;;;20.80;40.30;;;;;;5095093;28;20544;-68
2023/05/31 10:00:02;;;;;;;3.27;2.00;;;20.80;40.70;;;;;;5095531;28;20578;-69
2023/05/31 10:02:30;;;;;;;3.43;1.60;;;20.80;39.40;;;;;;5095379;28;20471;-69
2023/05/31 10:04:57;;;;;;;4.87;1.60;;;20.90;39.40;;;;;;5096537;28;20457;-69
2023/05/31 10:07:24;;;;;;;9.13;5.63;;;21.00;38.40;;;;;;5095009;28;20464;-68
2023/05/31 10:09:51;;;;;;;2.40;2.20;;;21.00;38.00;;;;;;5095804;28;20454;-69
2023/05/31 10:12:22;;;;;;;2.57;1.60;;;21.00;37.90;;;;;;5094471;28;20457;-68
2023/05/31 10:14:53;;;;;;;2.30;1.30;;;21.10;38.90;;;;;;5094150;28;20858;-69
2023/05/31 10:17:27;;;;;;;2.33;1.30;;;21.20;36.20;;;;;;5094252;28;20589;-69
2023/05/31 10:20:00;;;;;;;1.60;1.37;;;21.20;34.40;;;;;;5094309;28;20957;-69
2023/05/31 10:22:31;;;;;;;3.87;1.50;;;21.30;36.10;;;;;;5094646;28;20438;-69
2023/05/31 10:25:04;;;;;;;1.90;1.70;;;21.30;36.90;;;;;;5094376;28;20445;-69
2023/05/31 10:27:38;;;;;;;1.87;1.20;;;21.40;37.20;;;;;;5094730;28;20438;-69
2023/05/31 10:30:06;;;;;;;3.20;1.57;;;21.50;36.90;;;;;;5094510;28;20442;-69
2023/05/31 10:32:43;;;;;;;3.43;2.40;;;21.60;38.00;;;;;;5094343;28;20462;-67
2023/05/31 10:35:11;;;;;;;3.20;2.20;;;21.70;36.60;;;;;;5094276;28;20525;-69
2023/05/31 10:37:40;;;;;;;4.77;4.27;;;21.80;35.20;;;;;;5093475;28;21072;-69
2023/05/31 10:40:12;;;;;;;4.43;1.30;;;21.90;36.80;;;;;;5093573;28;20894;-68
2023/05/31 10:42:47;;;;;;;3.40;1.17;;;21.90;36.50;;;;;;5094159;28;20453;-68
2023/05/31 10:45:16;;;;;;;1.67;1.10;;;22.10;36.00;;;;;;5093864;28;20441;-68
2023/05/31 10:47:53;;;;;;;1.30;1.20;;;22.20;34.90;;;;;;5093776;28;20539;-68
2023/05/31 10:50:21;;;;;;;2.77;1.43;;;22.30;36.10;;;;;;5093841;28;20448;-69
2023/05/31 10:52:51;;;;;;;2.20;1.17;;;22.40;34.30;;;;;;5093952;28;20463;-68
2023/05/31 10:55:20;;;;;;;1.30;0.80;;;22.50;33.80;;;;;;5093849;28;20457;-69
2023/05/31 10:57:51;;;;;;;1.30;1.00;;;22.60;32.30;;;;;;5093410;28;20457;-69
2023/05/31 11:00:20;;;;;;;1.97;1.03;;;22.70;31.60;;;;;;5093769;28;20958;-69
2023/05/31 11:02:51;;;;;;;1.60;1.27;;;22.80;31.40;;;;;;5097720;28;20787;-68
2023/05/31 11:05:19;;;;;;;2.20;0.90;;;22.90;30.30;;;;;;5098311;28;20449;-68
2023/05/31 11:07:46;;;;;;;2.23;1.20;;;22.90;30.60;;;;;;5097977;28;20833;-69
2023/05/31 11:10:25;;;;;;;7.00;1.20;;;22.90;30.90;;;;;;5097690;28;20463;-69
2023/05/31 11:12:52;;;;;;;1.73;1.07;;;22.80;29.50;;;;;;5098088;28;20748;-68
2023/05/31 11:15:19;;;;;;;2.90;1.23;;;22.80;29.10;;;;;;5098007;28;20468;-68
2023/05/31 11:17:54;;;;;;;3.40;0.97;;;22.80;29.50;;;;;;5097767;28;20457;-68
2023/05/31 11:20:22;;;;;;;1.40;0.90;;;23.30;29.40;;;;;;5097549;28;20544;-68
2023/05/31 11:23:30;;;;;;;2.60;1.03;;;23.90;28.10;;;;;;5098098;28;20838;-68
2023/05/31 11:26:10;;;;;;;1.30;0.90;;;24.60;29.10;;;;;;5098277;28;20441;-69
2023/05/31 11:29:01;;;;;;;1.20;0.80;;;25.60;28.20;;;;;;5097985;28;20741;-69
2023/05/31 11:31:58;;;;;;;2.30;0.90;;;25.90;25.90;;;;;;5098122;28;20520;-68
2023/05/31 11:34:28;;;;;;;4.07;0.80;;;25.80;26.00;;;;;;5097415;28;20906;-69
2023/05/31 11:36:58;;;;;;;1.53;1.00;;;26.30;24.20;;;;;;5097144;28;20567;-68
2023/05/31 11:39:25;;;;;;;5.80;0.90;;;25.80;25.00;;;;;;5097311;28;20471;-69
2023/05/31 11:41:54;;;;;;;1.53;0.90;;;26.00;24.80;;;;;;5097135;28;20538;-69
2023/05/31 11:44:28;;;;;;;3.07;1.00;;;26.40;23.40;;;;;;5097919;28;20453;-67
2023/05/31 11:47:01;;;;;;;3.40;1.13;;;26.00;23.60;;;;;;5097375;28;20925;-68
2023/05/31 11:49:30;;;;;;;1.90;1.13;;;24.80;24.70;;;;;;5097611;28;20457;-68
2023/05/31 11:51:57;;;;;;;3.10;1.00;;;25.60;25.60;;;;;;5096943;28;20459;-69
2023/05/31 11:54:32;;;;;;;6.73;3.53;;;26.70;24.30;;;;;;5097305;28;20457;-68
2023/05/31 11:57:02;;;;;;;1.67;1.00;;;27.60;22.90;;;;;;5097177;28;20940;-68
2023/05/31 11:59:31;;;;;;;1.40;1.00;;;28.30;1.00;;;;;;5097826;28;20452;-68
2023/05/31 12:02:00;;;;;;;3.37;1.13;;;28.60;1.00;;;;;;5097139;28;20516;-69
2023/05/31 12:04:33;;;;;;;3.13;1.10;;;28.40;1.00;;;;;;5097798;28;20472;-69
2023/05/31 12:07:00;;;;;;;1.30;1.00;;;28.60;1.00;;;;;;5097038;28;20453;-69
2023/05/31 12:09:28;;;;;;;4.03;1.17;;;29.00;1.00;;;;;;5097922;28;20457;-69
2023/05/31 12:11:56;;;;;;;4.50;1.00;;;29.30;1.00;;;;;;5097035;28;20913;-69
2023/05/31 12:14:24;;;;;;;6.30;0.93;;;29.50;1.00;;;;;;5095991;28;20449;-68
2023/05/31 12:16:50;;;;;;;2.10;1.00;;;30.00;1.00;;;;;;5097233;28;20464;-68
2023/05/31 12:19:18;;;;;;;2.63;0.80;;;30.50;1.00;;;;;;5096667;28;20845;-68
2023/05/31 12:21:46;;;;;;;3.03;1.10;;;30.90;1.00;;;;;;5096733;28;20936;-68
2023/05/31 12:24:14;;;;;;;2.10;1.60;;;31.20;1.00;;;;;;5096933;28;20764;-68
2023/05/31 12:26:43;;;;;;;1.20;0.87;;;31.20;1.00;;;;;;5096605;28;20453;-68
2023/05/31 12:29:11;;;;;;;1.30;1.00;;;31.60;1.00;;;;;;5096789;28;20465;-68
2023/05/31 12:31:39;;;;;;;2.97;2.70;;;32.00;1.00;;;;;;5096505;28;20504;-68
2023/05/31 12:34:10;;;;;;;1.90;1.03;;;32.00;1.00;;;;;;5097002;28;20787;-68
2023/05/31 12:36:43;;;;;;;3.40;0.93;;;32.20;1.00;;;;;;5096330;28;20485;-68
2023/05/31 12:39:14;;;;;;;1.60;0.90;;;32.40;1.00;;;;;;5096588;28;20540;-68
2023/05/31 12:41:43;;;;;;;2.40;0.80;;;32.60;1.00;;;;;;5096217;28;20508;-68
2023/05/31 12:44:10;;;;;;;2.23;0.80;;;32.80;1.00;;;;;;5095919;28;20452;-67
2023/05/31 12:46:39;;;;;;;1.83;1.00;;;32.90;1.00;;;;;;5096342;28;20548;-68
2023/05/31 12:49:20;;;;;;;1.80;1.30;;;33.20;1.00;;;;;;5096495;28;20493;-68
2023/05/31 12:51:47;;;;;;;4.77;4.17;;;33.50;1.00;;;;;;5096169;28;20452;-68
2023/05/31 12:54:18;;;;;;;1.97;1.23;;;33.70;1.00;;;;;;5096030;28;20453;-68